Time;durP1;ratioP1;P1;durP2;ratioP2;P2;SDS_P1;SDS_P2;PMS_P1;PMS_P2;Temp;Humidity;BMP_temperature;BMP_pressure;BME280_temperature;BME280_humidity;BME280_pressure;Samples;Min_cycle;Max_cycle;Signal;HPM_P1;HPM_P2
2022/12/02 00:00:24;;;;;;;88.47;43.90;;;;;;;4.87;100.00;102546.63;5265254;28;20018;-92
2022/12/02 00:02:57;;;;;;;83.03;43.50;;;;;;;4.86;100.00;102552.00;5265599;28;20056;-91
2022/12/02 00:05:33;;;;;;;90.30;46.35;;;;;;;4.85;100.00;102542.31;5264693;28;20429;-91
2022/12/02 00:08:19;;;;;;;95.78;47.60;;;;;;;4.86;100.00;102552.84;5265630;28;20033;-90
2022/12/02 00:10:53;;;;;;;103.28;48.65;;;;;;;4.85;100.00;102551.09;5259436;28;20026;-91
2022/12/02 00:13:36;;;;;;;106.93;51.88;;;;;;;4.83;100.00;102546.81;5244589;28;20069;-92
2022/12/02 00:16:21;;;;;;;101.63;50.15;;;;;;;4.80;100.00;102545.13;5260577;28;20470;-91
2022/12/02 00:18:53;;;;;;;100.05;50.70;;;;;;;4.70;100.00;102539.38;5264692;28;20029;-91
2022/12/02 00:21:24;;;;;;;106.95;49.65;;;;;;;4.69;100.00;102547.38;5264106;28;20060;-91
2022/12/02 00:23:56;;;;;;;102.38;50.08;;;;;;;4.66;100.00;102534.28;5264529;28;20108;-91
2022/12/02 00:26:27;;;;;;;100.70;49.47;;;;;;;4.60;100.00;102537.19;5263510;28;20080;-91
2022/12/02 00:28:58;;;;;;;99.07;50.70;;;;;;;4.61;100.00;102541.53;5246963;28;20081;-92
2022/12/02 00:31:30;;;;;;;97.57;48.65;;;;;;;4.58;100.00;102533.75;5248822;28;20033;-91
2022/12/02 00:34:02;;;;;;;92.40;47.25;;;;;;;4.57;100.00;102529.38;5267303;28;20385;-90
2022/12/02 00:36:33;;;;;;;83.20;45.10;;;;;;;4.53;100.00;102518.06;5246398;28;20037;-91
2022/12/02 00:39:05;;;;;;;83.22;45.25;;;;;;;4.48;100.00;102525.31;5265301;28;20028;-90
2022/12/02 00:41:36;;;;;;;86.13;45.03;;;;;;;4.47;100.00;102515.66;5263477;28;20024;-91
2022/12/02 00:46:57;;;;;;;82.63;44.90;;;;;;;4.38;100.00;102510.75;5263635;28;20030;-91
2022/12/02 00:49:29;;;;;;;80.50;44.03;;;;;;;4.36;100.00;102513.44;5263765;28;20024;-89
2022/12/02 00:52:00;;;;;;;79.25;43.28;;;;;;;4.37;100.00;102515.19;5245026;28;20371;-89
2022/12/02 00:54:31;;;;;;;79.32;43.50;;;;;;;4.33;100.00;102514.44;5263617;28;20018;-88
2022/12/02 00:57:02;;;;;;;85.22;44.92;;;;;;;4.30;100.00;102509.28;5262333;28;25623;-89
2022/12/02 00:59:34;;;;;;;87.50;45.83;;;;;;;4.27;100.00;102511.19;5262956;28;20037;-90
2022/12/02 01:02:05;;;;;;;86.63;47.05;;;;;;;4.27;100.00;102512.03;5263099;28;20359;-90
2022/12/02 01:04:36;;;;;;;85.20;44.00;;;;;;;4.25;100.00;102516.53;5263431;28;20374;-90
2022/12/02 01:07:08;;;;;;;75.70;42.65;;;;;;;4.24;100.00;102511.31;5262181;28;24460;-91
2022/12/02 01:09:39;;;;;;;80.88;42.13;;;;;;;4.21;100.00;102507.00;5245669;28;20085;-91
2022/12/02 01:12:11;;;;;;;81.35;42.92;;;;;;;4.20;100.00;102504.44;5249299;28;20029;-90
2022/12/02 01:14:42;;;;;;;81.00;42.08;;;;;;;4.21;100.00;102514.06;5230160;28;20087;-89
2022/12/02 01:17:13;;;;;;;75.88;40.70;;;;;;;4.18;100.00;102512.41;5262188;28;20037;-89
2022/12/02 01:19:45;;;;;;;84.00;42.60;;;;;;;4.16;100.00;102509.81;5263082;28;20049;-90
2022/12/02 01:22:16;;;;;;;78.68;44.20;;;;;;;4.18;100.00;102507.13;5244509;28;20032;-90
2022/12/02 01:24:47;;;;;;;76.38;40.75;;;;;;;4.13;100.00;102495.88;5240350;28;20483;-90
2022/12/02 01:27:19;;;;;;;77.43;41.65;;;;;;;4.09;100.00;102505.72;5224033;28;20453;-90
2022/12/02 01:29:50;;;;;;;75.68;40.58;;;;;;;4.12;100.00;102508.22;5242619;28;20109;-89
2022/12/02 01:32:22;;;;;;;77.03;39.13;;;;;;;4.13;100.00;102514.38;5250689;28;20038;-90
2022/12/02 01:34:53;;;;;;;83.63;42.92;;;;;;;4.12;100.00;102502.06;5263814;28;20049;-91
2022/12/02 01:37:24;;;;;;;74.57;41.25;;;;;;;4.10;100.00;102501.28;5263872;28;20052;-90
2022/12/02 01:39:56;;;;;;;80.28;42.40;;;;;;;4.11;100.00;102500.38;5265252;28;20018;-89
2022/12/02 01:42:27;;;;;;;77.18;41.25;;;;;;;4.12;100.00;102507.34;5268350;28;20389;-90
2022/12/02 01:44:59;;;;;;;80.05;41.05;;;;;;;4.09;100.00;102508.34;5265157;28;20038;-88
2022/12/02 01:47:30;;;;;;;83.55;42.83;;;;;;;4.08;100.00;102511.03;5267365;28;20013;-88
2022/12/02 01:50:04;;;;;;;87.53;42.35;;;;;;;4.09;100.00;102508.34;5272237;28;20025;-89
2022/12/02 01:52:35;;;;;;;78.72;40.90;;;;;;;4.15;100.00;102509.88;5270232;28;20484;-88
2022/12/02 01:55:12;;;;;;;79.43;41.50;;;;;;;4.12;100.00;102505.59;5269616;28;20107;-88
2022/12/02 01:57:43;;;;;;;81.55;41.78;;;;;;;4.11;100.00;102503.00;5246402;28;20033;-87
2022/12/02 02:00:15;;;;;;;78.22;38.53;;;;;;;4.13;100.00;102501.16;5264444;28;20018;-88
2022/12/02 02:02:47;;;;;;;79.90;41.15;;;;;;;4.08;100.00;102503.13;5246749;28;20025;-88
2022/12/02 02:05:22;;;;;;;77.90;39.83;;;;;;;4.13;100.00;102502.00;5262052;28;20010;-89
2022/12/02 02:07:56;;;;;;;83.73;41.07;;;;;;;4.05;100.00;102503.22;5243789;28;20033;-88
2022/12/02 02:10:28;;;;;;;80.45;41.50;;;;;;;4.01;100.00;102499.84;5263232;28;20517;-89
2022/12/02 02:13:00;;;;;;;74.53;38.75;;;;;;;4.04;100.00;102507.66;5261794;28;20097;-88
2022/12/02 02:15:32;;;;;;;76.97;40.35;;;;;;;3.95;100.00;102500.94;5286195;28;20018;-89
2022/12/02 02:18:03;;;;;;;79.90;41.45;;;;;;;3.94;100.00;102496.63;5288357;28;20018;-91
2022/12/02 02:20:39;;;;;;;78.38;40.30;;;;;;;3.96;100.00;102501.81;5289309;28;20044;-90
2022/12/02 02:23:22;;;;;;;79.40;40.60;;;;;;;3.91;100.00;102502.00;5273279;28;20025;-92
2022/12/02 02:25:58;;;;;;;76.72;41.00;;;;;;;3.89;100.00;102505.59;5271435;28;20029;-91
2022/12/02 02:28:30;;;;;;;82.55;41.42;;;;;;;3.88;100.00;102495.97;5265556;28;20030;-91
2022/12/02 02:31:02;;;;;;;81.45;41.22;;;;;;;3.88;100.00;102495.97;5246613;28;20022;-88
2022/12/02 02:33:35;;;;;;;82.53;41.75;;;;;;;3.83;100.00;102492.66;5262775;28;20045;-89
2022/12/02 02:36:06;;;;;;;78.95;39.30;;;;;;;3.84;100.00;102489.97;5256613;28;20022;-89
2022/12/02 02:38:38;;;;;;;79.40;39.58;;;;;;;3.86;100.00;102495.19;5261090;28;21445;-88
2022/12/02 02:41:10;;;;;;;84.80;42.17;;;;;;;3.80;100.00;102493.63;5266113;28;20092;-88
2022/12/02 02:43:41;;;;;;;80.07;40.78;;;;;;;3.79;100.00;102491.91;5264452;28;20414;-88
2022/12/02 02:46:14;;;;;;;79.32;39.35;;;;;;;3.85;100.00;102485.53;5263318;28;20147;-88
2022/12/02 02:48:46;;;;;;;76.57;38.90;;;;;;;3.79;100.00;102479.56;5265331;28;20056;-91
2022/12/02 02:51:18;;;;;;;79.10;42.60;;;;;;;3.75;100.00;102477.97;5264372;28;20025;-91
2022/12/02 02:53:50;;;;;;;80.32;40.80;;;;;;;3.75;100.00;102485.00;5246513;28;20059;-89
2022/12/02 02:56:21;;;;;;;76.43;41.03;;;;;;;3.61;100.00;102474.97;5264526;28;20374;-90
2022/12/02 02:58:52;;;;;;;75.00;39.97;;;;;;;3.57;100.00;102471.59;5265956;28;20426;-91
2022/12/02 03:01:32;;;;;;;77.70;38.97;;;;;;;3.60;100.00;102475.91;5265850;28;20033;-91
2022/12/02 03:04:09;;;;;;;73.43;37.75;;;;;;;3.54;100.00;102470.84;5264754;28;20025;-90
2022/12/02 03:06:41;;;;;;;77.60;38.03;;;;;;;3.47;100.00;102467.59;5263244;28;20068;-90
2022/12/02 03:09:16;;;;;;;69.50;36.65;;;;;;;3.44;100.00;102464.16;5264642;28;20025;-90
2022/12/02 03:11:51;;;;;;;71.60;37.75;;;;;;;3.39;100.00;102459.09;5263977;28;20429;-90
2022/12/02 03:14:23;;;;;;;71.65;36.67;;;;;;;3.41;100.00;102452.81;5264322;28;20029;-89
2022/12/02 03:16:56;;;;;;;71.57;37.45;;;;;;;3.37;100.00;102453.88;5264048;28;20533;-89
2022/12/02 03:19:30;;;;;;;70.85;37.08;;;;;;;3.39;100.00;102451.19;5263962;28;20049;-90
2022/12/02 03:22:02;;;;;;;73.75;36.28;;;;;;;3.37;100.00;102451.22;5263196;28;20061;-87
2022/12/02 03:24:34;;;;;;;69.85;36.83;;;;;;;3.34;100.00;102453.97;5264169;28;20427;-87
2022/12/02 03:27:07;;;;;;;66.07;35.85;;;;;;;3.32;100.00;102444.41;5246934;28;20132;-89
2022/12/02 03:29:39;;;;;;;70.72;37.63;;;;;;;3.23;100.00;102442.97;5265583;28;20033;-90
2022/12/02 03:32:11;;;;;;;66.13;36.33;;;;;;;3.18;100.00;102458.94;5273340;28;20124;-90
2022/12/02 03:34:43;;;;;;;66.57;36.05;;;;;;;3.20;100.00;102453.63;5269782;28;20108;-89
2022/12/02 03:37:14;;;;;;;69.03;36.22;;;;;;;3.17;100.00;102459.88;5245480;28;20477;-89
2022/12/02 03:39:46;;;;;;;65.90;35.65;;;;;;;3.14;100.00;102461.75;5263000;28;20092;-90
2022/12/02 03:42:17;;;;;;;61.28;33.25;;;;;;;3.26;100.00;102457.81;5264369;28;20025;-90
2022/12/02 03:44:49;;;;;;;52.83;28.75;;;;;;;3.47;100.00;102454.41;5261898;28;20045;-89
2022/12/02 03:47:21;;;;;;;71.50;34.95;;;;;;;3.40;100.00;102443.22;5264384;28;20533;-89
2022/12/02 03:49:52;;;;;;;69.43;35.25;;;;;;;3.30;100.00;102436.53;5263343;28;20167;-91
2022/12/02 03:52:24;;;;;;;63.90;33.58;;;;;;;3.31;100.00;102445.31;5265756;28;20378;-89
2022/12/02 03:54:56;;;;;;;70.57;36.10;;;;;;;3.26;100.00;102445.50;5264109;28;20034;-92
2022/12/02 03:57:31;;;;;;;67.85;36.40;;;;;;;3.27;100.00;102435.81;5265067;28;20017;-89
2022/12/02 04:00:04;;;;;;;71.38;36.33;;;;;;;3.24;100.00;102438.53;5266701;28;20045;-89
2022/12/02 04:02:35;;;;;;;71.35;37.85;;;;;;;3.15;100.00;102421.28;5269166;28;20393;-90
2022/12/02 04:05:07;;;;;;;68.68;36.00;;;;;;;3.12;100.00;102427.53;5264212;28;20029;-90
2022/12/02 04:07:38;;;;;;;66.25;35.35;;;;;;;3.05;100.00;102423.41;5264562;28;20028;-90
2022/12/02 04:10:10;;;;;;;67.55;36.15;;;;;;;3.03;100.00;102428.72;5270338;28;20037;-89
2022/12/02 04:12:41;;;;;;;67.00;34.90;;;;;;;3.06;100.00;102427.75;5309862;28;20037;-89
2022/12/02 04:15:14;;;;;;;73.57;37.80;;;;;;;3.01;100.00;102435.81;5291805;28;20022;-89
2022/12/02 04:17:51;;;;;;;65.47;36.05;;;;;;;3.01;100.00;102424.41;5284123;28;20048;-94
2022/12/02 04:20:23;;;;;;;70.93;36.05;;;;;;;3.03;100.00;102426.09;5268203;28;20398;-89
2022/12/02 04:22:54;;;;;;;65.90;35.00;;;;;;;2.94;100.00;102423.75;5268371;28;20080;-90
2022/12/02 04:25:25;;;;;;;71.35;36.78;;;;;;;2.92;100.00;102422.97;5266830;28;20064;-92
2022/12/02 04:27:57;;;;;;;69.22;35.90;;;;;;;2.94;100.00;102422.91;5268793;28;20057;-93
2022/12/02 04:30:28;;;;;;;71.75;36.90;;;;;;;2.95;100.00;102412.31;5264060;28;20029;-92
2022/12/02 04:33:00;;;;;;;73.28;37.95;;;;;;;2.94;100.00;102404.47;5245205;28;20033;-92
2022/12/02 04:35:31;;;;;;;67.28;34.65;;;;;;;2.95;100.00;102420.22;5247929;28;20025;-90
2022/12/02 04:38:03;;;;;;;65.28;33.42;;;;;;;2.97;100.00;102420.16;5262722;28;20028;-90
2022/12/02 04:40:34;;;;;;;68.35;34.67;;;;;;;2.88;100.00;102412.59;5263893;28;20029;-90
2022/12/02 04:43:05;;;;;;;68.07;34.80;;;;;;;2.89;100.00;102428.31;5262142;28;20056;-90
2022/12/02 04:45:37;;;;;;;69.82;35.22;;;;;;;2.88;100.00;102420.50;5263457;28;20028;-90
2022/12/02 04:48:08;;;;;;;72.50;35.47;;;;;;;2.85;100.00;102424.09;5262088;28;20022;-90
2022/12/02 04:50:39;;;;;;;68.75;34.55;;;;;;;2.81;100.00;102417.22;5263548;28;20370;-90
2022/12/02 04:53:11;;;;;;;69.20;33.45;;;;;;;2.81;100.00;102410.16;5261246;28;20041;-90
2022/12/02 04:55:45;;;;;;;66.28;32.10;;;;;;;2.79;100.00;102414.63;5263052;28;20568;-90
2022/12/02 04:58:16;;;;;;;66.35;32.50;;;;;;;2.80;100.00;102411.06;5256296;28;20029;-90
2022/12/02 05:00:47;;;;;;;61.38;30.55;;;;;;;2.80;100.00;102408.44;5243569;28;20018;-90
2022/12/02 05:03:19;;;;;;;62.97;31.65;;;;;;;2.74;100.00;102407.81;5257918;28;20339;-91
2022/12/02 05:05:50;;;;;;;52.80;27.33;;;;;;;2.71;100.00;102394.72;5264958;28;20419;-91
2022/12/02 05:08:21;;;;;;;54.33;28.10;;;;;;;2.71;100.00;102400.84;5270817;28;20052;-90
2022/12/02 05:10:53;;;;;;;49.20;25.75;;;;;;;2.71;100.00;102398.22;5265181;28;20022;-91
2022/12/02 05:13:24;;;;;;;48.35;25.38;;;;;;;2.70;100.00;102396.50;5256468;28;20022;-90
2022/12/02 05:15:55;;;;;;;49.47;27.05;;;;;;;2.71;100.00;102406.13;5264952;28;20079;-91
2022/12/02 05:18:27;;;;;;;48.03;26.92;;;;;;;2.70;100.00;102385.09;5245391;28;20108;-90
2022/12/02 05:20:58;;;;;;;53.67;26.92;;;;;;;2.67;100.00;102378.16;5263965;28;20076;-90
2022/12/02 05:23:29;;;;;;;52.33;27.60;;;;;;;2.71;100.00;102381.56;5249049;28;20043;-91
2022/12/02 05:26:01;;;;;;;56.03;27.77;;;;;;;2.71;100.00;102389.47;5263483;28;20397;-91
2022/12/02 05:28:32;;;;;;;51.47;27.13;;;;;;;2.71;100.00;102385.03;5264150;28;20061;-90
2022/12/02 05:31:03;;;;;;;55.50;28.90;;;;;;;2.67;100.00;102378.16;5262815;28;20025;-89
2022/12/02 05:33:35;;;;;;;53.35;26.98;;;;;;;2.71;100.00;102385.03;5264028;28;20032;-90
2022/12/02 05:36:09;;;;;;;53.08;28.27;;;;;;;2.73;100.00;102396.38;5245941;28;20034;-90
2022/12/02 05:38:40;;;;;;;53.72;28.48;;;;;;;2.72;100.00;102397.31;5264250;28;20423;-90
2022/12/02 05:41:12;;;;;;;54.60;27.98;;;;;;;2.71;100.00;102390.31;5263905;28;20084;-90
2022/12/02 05:43:43;;;;;;;53.30;28.42;;;;;;;2.73;100.00;102383.22;5269367;28;20017;-91
2022/12/02 05:46:17;;;;;;;53.67;28.45;;;;;;;2.70;100.00;102378.06;5266010;28;20123;-90
2022/12/02 05:48:50;;;;;;;54.95;28.08;;;;;;;2.68;100.00;102376.38;5265017;28;20029;-90
2022/12/02 05:51:21;;;;;;;53.28;26.77;;;;;;;2.72;100.00;102373.59;5262829;28;20025;-90
2022/12/02 05:53:52;;;;;;;50.83;26.50;;;;;;;2.69;100.00;102378.13;5248604;28;20200;-90
2022/12/02 05:56:26;;;;;;;51.35;27.33;;;;;;;2.64;100.00;102380.91;5262568;28;20101;-90
2022/12/02 05:59:01;;;;;;;50.67;26.52;;;;;;;2.69;100.00;102383.38;5260933;28;20038;-89
2022/12/02 06:01:36;;;;;;;47.67;24.88;;;;;;;2.65;100.00;102383.50;5262711;28;20120;-89
2022/12/02 06:04:30;;;;;;;46.50;24.98;;;;;;;2.70;100.00;102379.81;5262589;28;20229;-90
2022/12/02 06:07:09;;;;;;;45.75;23.45;;;;;;;2.62;100.00;102375.69;5243404;28;20026;-91
2022/12/02 06:09:42;;;;;;;46.45;24.85;;;;;;;2.63;100.00;102379.19;5262723;28;20045;-90
2022/12/02 06:12:17;;;;;;;46.75;23.77;;;;;;;2.60;100.00;102377.50;5264784;28;20057;-90
2022/12/02 06:14:53;;;;;;;46.38;23.70;;;;;;;2.65;100.00;102377.38;5253157;28;20040;-90
2022/12/02 06:17:24;;;;;;;42.45;22.80;;;;;;;2.64;100.00;102380.91;5252327;28;20107;-91
2022/12/02 06:19:56;;;;;;;45.92;24.55;;;;;;;2.62;100.00;102385.38;5271271;28;20042;-90
2022/12/02 06:22:33;;;;;;;46.22;24.40;;;;;;;2.62;100.00;102375.69;5264788;28;20025;-89
2022/12/02 06:25:21;;;;;;;46.15;23.92;;;;;;;2.67;100.00;102387.84;5265744;28;20108;-90
2022/12/02 06:28:20;;;;;;;51.13;25.40;;;;;;;2.63;100.00;102385.31;5266280;28;20022;-90
2022/12/02 06:30:54;;;;;;;46.67;23.67;;;;;;;2.65;100.00;102380.00;5261810;28;20037;-90
2022/12/02 06:33:35;;;;;;;51.83;24.58;;;;;;;2.63;100.00;102381.84;5265460;28;20034;-90
2022/12/02 06:36:21;;;;;;;50.70;24.48;;;;;;;2.65;100.00;102377.38;5266290;28;20021;-90
2022/12/02 06:39:02;;;;;;;45.08;24.40;;;;;;;2.64;100.00;102381.75;5267020;28;20097;-91
2022/12/02 06:41:36;;;;;;;44.10;24.40;;;;;;;2.65;100.00;102378.22;5265440;28;20056;-91
2022/12/02 06:47:36;;;;;;;49.72;25.15;;;;;;;2.62;100.00;102372.19;5265979;28;20426;-92
2022/12/02 06:50:22;;;;;;;47.90;23.05;;;;;;;2.58;100.00;102383.78;5283532;28;20017;-90
2022/12/02 06:53:01;;;;;;;47.00;24.63;;;;;;;2.57;100.00;102385.53;5307990;28;20014;-90
2022/12/02 06:55:37;;;;;;;49.17;25.50;;;;;;;2.56;100.00;102378.56;5289487;28;20021;-89
2022/12/02 06:58:27;;;;;;;47.50;23.30;;;;;;;2.58;100.00;102375.88;5286449;28;20045;-89
2022/12/02 07:01:13;;;;;;;43.60;22.25;;;;;;;2.58;100.00;102378.50;5285128;28;20040;-89
2022/12/02 07:04:08;;;;;;;46.30;22.93;;;;;;;2.58;100.00;102379.34;5267663;28;20033;-89
2022/12/02 07:06:42;;;;;;;43.45;22.10;;;;;;;2.56;100.00;102377.66;5242783;28;20658;-89
2022/12/02 07:09:37;;;;;;;43.50;23.13;;;;;;;2.59;100.00;102381.06;5269215;28;20029;-91
2022/12/02 07:12:14;;;;;;;47.00;24.70;;;;;;;2.52;100.00;102384.81;5263380;28;20037;-89
2022/12/02 07:14:47;;;;;;;44.83;22.58;;;;;;;2.50;100.00;102385.78;5261429;28;20036;-89
2022/12/02 07:17:30;;;;;;;51.25;24.17;;;;;;;2.53;100.00;102380.44;5262992;28;20036;-90
2022/12/02 07:20:04;;;;;;;49.15;23.50;;;;;;;2.55;100.00;102390.00;5263427;28;20046;-91
2022/12/02 07:22:42;;;;;;;47.90;24.20;;;;;;;2.55;100.00;102395.25;5263631;28;20033;-91
2022/12/02 07:25:32;;;;;;;45.38;23.92;;;;;;;2.52;100.00;102387.44;5243524;28;20520;-90
2022/12/02 07:28:31;;;;;;;50.92;24.55;;;;;;;2.54;100.00;102390.91;5242496;28;20029;-91
2022/12/02 07:31:18;;;;;;;43.95;22.05;;;;;;;2.55;100.00;102395.25;5257847;28;20025;-90
2022/12/02 07:33:50;;;;;;;43.67;22.40;;;;;;;2.51;100.00;102392.78;5265481;28;20030;-90
2022/12/02 07:36:21;;;;;;;46.80;23.25;;;;;;;2.49;100.00;102379.69;5269392;28;20304;-90
2022/12/02 07:38:53;;;;;;;46.50;22.40;;;;;;;2.54;100.00;102388.28;5286228;28;20041;-92
2022/12/02 07:41:24;;;;;;;40.00;21.20;;;;;;;2.53;100.00;102386.56;5288084;28;20034;-90
2022/12/02 07:43:56;;;;;;;42.85;21.85;;;;;;;2.52;100.00;102379.53;5287410;28;20013;-92
2022/12/02 07:46:27;;;;;;;40.22;20.60;;;;;;;2.52;100.00;102384.81;5267542;28;20081;-89
2022/12/02 07:48:58;;;;;;;41.70;20.38;;;;;;;2.54;100.00;102379.50;5282485;28;20060;-91
2022/12/02 07:51:30;;;;;;;42.97;20.77;;;;;;;2.53;100.00;102383.91;5277425;28;22166;-90
2022/12/02 07:54:01;;;;;;;35.80;19.60;;;;;;;2.52;100.00;102374.28;5267298;28;20025;-91
2022/12/02 07:56:32;;;;;;;36.10;19.95;;;;;;;2.52;100.00;102379.53;5263827;28;20057;-90
2022/12/02 07:59:04;;;;;;;38.85;20.70;;;;;;;2.54;100.00;102385.66;5245903;28;20025;-90
2022/12/02 08:01:35;;;;;;;40.38;20.73;;;;;;;2.55;100.00;102382.09;5263376;28;20052;-90
2022/12/02 08:04:07;;;;;;;37.20;19.88;;;;;;;2.52;100.00;102383.97;5262759;28;20021;-90
2022/12/02 08:06:38;;;;;;;38.88;19.13;;;;;;;2.57;100.00;102387.31;5263835;28;20010;-91
2022/12/02 08:09:10;;;;;;;38.85;19.02;;;;;;;2.63;100.00;102395.00;5263620;28;20103;-91
2022/12/02 08:11:41;;;;;;;38.38;19.70;;;;;;;2.60;100.00;102395.09;5263934;28;20036;-90
2022/12/02 08:14:12;;;;;;;41.90;21.40;;;;;;;2.58;100.00;102395.16;5264621;28;20501;-90
2022/12/02 08:16:44;;;;;;;44.38;20.90;;;;;;;2.58;100.00;102386.41;5264571;28;20055;-90
2022/12/02 08:19:15;;;;;;;38.13;21.38;;;;;;;2.57;100.00;102387.31;5263416;28;23992;-90
2022/12/02 08:21:46;;;;;;;43.15;20.85;;;;;;;2.57;100.00;102393.44;5263567;28;20048;-90
2022/12/02 08:24:18;;;;;;;45.05;21.17;;;;;;;2.61;100.00;102379.25;5262262;28;20031;-91
2022/12/02 08:26:49;;;;;;;43.58;21.23;;;;;;;2.66;100.00;102386.97;5261928;28;20430;-90
2022/12/02 08:29:21;;;;;;;41.15;20.92;;;;;;;2.71;100.00;102385.03;5263192;28;20029;-90
2022/12/02 08:31:52;;;;;;;44.70;21.40;;;;;;;2.69;100.00;102386.03;5246199;28;20041;-90
2022/12/02 08:34:23;;;;;;;43.17;21.55;;;;;;;2.71;100.00;102387.69;5264194;28;20060;-90
2022/12/02 08:36:55;;;;;;;44.72;21.83;;;;;;;2.73;100.00;102382.34;5264014;28;20025;-89
2022/12/02 08:39:26;;;;;;;45.45;22.77;;;;;;;2.71;100.00;102384.19;5248903;28;20124;-90
2022/12/02 08:41:58;;;;;;;46.30;23.67;;;;;;;2.74;100.00;102373.56;5267584;28;20029;-90
2022/12/02 08:44:29;;;;;;;49.63;23.25;;;;;;;2.74;100.00;102387.56;5264310;28;20160;-90
2022/12/02 08:47:00;;;;;;;47.50;22.80;;;;;;;2.70;100.00;102379.81;5264696;28;20434;-90
2022/12/02 08:49:32;;;;;;;52.92;24.65;;;;;;;2.66;100.00;102379.06;5264566;28;20288;-90
2022/12/02 08:52:03;;;;;;;42.67;22.45;;;;;;;2.68;100.00;102394.84;5266281;28;20362;-90
2022/12/02 08:54:34;;;;;;;50.95;24.58;;;;;;;2.67;100.00;102388.72;5267592;28;20374;-89
2022/12/02 08:57:06;;;;;;;46.67;23.65;;;;;;;2.71;100.00;102392.09;5267142;28;20025;-90
2022/12/02 08:59:37;;;;;;;54.03;27.40;;;;;;;2.68;100.00;102386.94;5266600;28;20022;-90
2022/12/02 09:02:08;;;;;;;48.53;25.27;;;;;;;2.67;100.00;102382.59;5263816;28;20432;-90
2022/12/02 09:04:40;;;;;;;46.95;23.58;;;;;;;2.68;100.00;102389.56;5264962;28;20018;-90
2022/12/02 09:07:11;;;;;;;49.38;24.90;;;;;;;2.69;100.00;102380.75;5262339;28;20108;-90
2022/12/02 09:09:43;;;;;;;39.08;21.10;;;;;;;2.70;100.00;102383.34;5263404;28;20022;-90
2022/12/02 09:12:14;;;;;;;41.78;22.05;;;;;;;2.67;100.00;102383.44;5245699;28;20039;-89
2022/12/02 09:14:45;;;;;;;38.65;21.98;;;;;;;2.69;100.00;102386.03;5263313;28;20025;-90
2022/12/02 09:17:17;;;;;;;40.65;22.27;;;;;;;2.72;100.00;102385.91;5245885;28;20021;-90
2022/12/02 09:19:48;;;;;;;38.42;19.73;;;;;;;2.72;100.00;102381.50;5263709;28;20046;-91
2022/12/02 09:22:19;;;;;;;36.17;20.02;;;;;;;2.71;100.00;102379.78;5245453;28;20109;-91
2022/12/02 09:24:51;;;;;;;43.08;20.58;;;;;;;2.67;100.00;102380.81;5245398;28;20100;-91
2022/12/02 09:27:22;;;;;;;38.70;20.08;;;;;;;2.70;100.00;102380.72;5263956;28;20056;-89
2022/12/02 09:29:53;;;;;;;37.38;19.10;;;;;;;2.74;100.00;102386.72;5276419;28;20040;-90
2022/12/02 09:32:25;;;;;;;35.70;19.75;;;;;;;2.70;100.00;102382.47;5289587;28;20029;-91
2022/12/02 09:34:56;;;;;;;33.70;17.25;;;;;;;2.64;100.00;102379.13;5289485;28;20014;-90
2022/12/02 09:37:27;;;;;;;35.63;18.17;;;;;;;2.62;100.00;102380.09;5289641;28;20006;-89
2022/12/02 09:39:59;;;;;;;33.05;17.00;;;;;;;2.57;100.00;102376.75;5269627;28;20029;-90
2022/12/02 09:42:31;;;;;;;30.35;16.42;;;;;;;2.62;100.00;102373.06;5275955;28;20113;-90
2022/12/02 09:45:03;;;;;;;37.88;18.67;;;;;;;2.61;100.00;102371.34;5263379;28;20017;-90
2022/12/02 09:47:34;;;;;;;32.17;17.88;;;;;;;2.62;100.00;102367.78;5263160;28;20130;-90
2022/12/02 09:50:08;;;;;;;36.30;19.13;;;;;;;2.62;100.00;102367.78;5262918;28;20025;-91
2022/12/02 09:52:40;;;;;;;39.88;18.52;;;;;;;2.61;100.00;102360.81;5243738;28;20036;-90
2022/12/02 09:55:17;;;;;;;36.15;18.30;;;;;;;2.70;100.00;102369.28;5262172;28;20029;-89
2022/12/02 09:57:48;;;;;;;32.10;17.83;;;;;;;2.78;100.00;102357.56;5262652;28;20022;-89
2022/12/02 10:00:21;;;;;;;33.90;18.58;;;;;;;2.77;100.00;102368.16;5265526;28;20029;-90
2022/12/02 10:02:53;;;;;;;33.90;18.17;;;;;;;2.75;100.00;102362.97;5266370;28;20383;-90
2022/12/02 10:05:28;;;;;;;35.63;19.13;;;;;;;2.78;100.00;102369.88;5266542;28;20577;-90
2022/12/02 10:08:18;;;;;;;37.05;19.00;;;;;;;2.80;100.00;102361.00;5265678;28;20505;-90
2022/12/02 10:10:53;;;;;;;34.95;18.35;;;;;;;2.83;100.00;102354.75;5265099;28;20079;-90
2022/12/02 10:13:25;;;;;;;36.05;17.40;;;;;;;2.79;100.00;102356.66;5263341;28;20029;-90
2022/12/02 10:15:58;;;;;;;33.92;18.30;;;;;;;2.80;100.00;102368.03;5265453;28;20426;-90
2022/12/02 10:18:31;;;;;;;31.25;18.52;;;;;;;2.82;100.00;102363.56;5265128;28;20468;-90
2022/12/02 10:21:02;;;;;;;31.42;17.48;;;;;;;2.86;100.00;102366.97;5265388;28;20073;-89
2022/12/02 10:23:53;;;;;;;37.17;18.52;;;;;;;2.90;100.00;102360.69;5264972;28;20064;-90
2022/12/02 10:26:25;;;;;;;37.88;19.05;;;;;;;2.89;100.00;102361.59;5262508;28;20021;-90
2022/12/02 10:29:06;;;;;;;39.95;19.63;;;;;;;2.83;100.00;102366.16;5266737;28;20083;-90
2022/12/02 10:31:37;;;;;;;44.85;21.25;;;;;;;2.81;100.00;102351.34;5265255;28;20029;-90
2022/12/02 10:34:19;;;;;;;40.38;19.17;;;;;;;2.87;100.00;102358.16;5266499;28;20064;-91
2022/12/02 10:36:51;;;;;;;49.83;21.38;;;;;;;2.79;100.00;102351.38;5266278;28;20326;-90
2022/12/02 10:39:28;;;;;;;52.05;22.55;;;;;;;2.80;100.00;102349.59;5257501;28;20112;-90
2022/12/02 10:42:03;;;;;;;52.33;22.27;;;;;;;2.75;100.00;102343.63;5266287;28;20117;-91
2022/12/02 10:44:44;;;;;;;53.72;22.77;;;;;;;2.78;100.00;102346.16;5247005;28;20989;-90
2022/12/02 10:47:22;;;;;;;55.58;24.17;;;;;;;2.76;100.00;102338.31;5266367;28;20025;-90
2022/12/02 10:49:55;;;;;;;56.50;23.23;;;;;;;2.77;100.00;102337.41;5266266;28;20025;-90
2022/12/02 10:52:32;;;;;;;56.55;23.98;;;;;;;2.81;100.00;102335.53;5266307;28;20065;-91
2022/12/02 10:55:05;;;;;;;54.08;24.98;;;;;;;2.80;100.00;102333.78;5266136;28;20104;-90
2022/12/02 10:57:37;;;;;;;53.30;24.30;;;;;;;2.80;100.00;102339.91;5248512;28;20446;-90
2022/12/02 11:00:19;;;;;;;57.45;24.67;;;;;;;2.91;100.00;102330.75;5265637;28;20025;-91
2022/12/02 11:02:58;;;;;;;59.10;25.65;;;;;;;2.87;100.00;102332.66;5248114;28;20056;-91
2022/12/02 11:05:34;;;;;;;58.38;26.02;;;;;;;2.93;100.00;102328.91;5264966;28;20021;-91
2022/12/02 11:08:14;;;;;;;57.25;24.40;;;;;;;3.05;100.00;102324.97;5246644;28;20034;-91
2022/12/02 11:10:50;;;;;;;54.97;23.85;;;;;;;3.09;100.00;102319.53;5264352;28;20021;-91
2022/12/02 11:13:45;;;;;;;59.20;25.38;;;;;;;3.14;100.00;102330.78;5265704;28;20091;-90
2022/12/02 11:16:26;;;;;;;58.78;26.23;;;;;;;3.15;100.00;102329.84;5264443;28;20060;-90
2022/12/02 11:18:57;;;;;;;55.67;23.98;;;;;;;3.13;100.00;102321.13;5264315;28;20066;-90
2022/12/02 11:21:28;;;;;;;63.13;26.55;;;;;;;3.09;100.00;102329.22;5264061;28;20415;-91
2022/12/02 11:24:22;;;;;;;64.50;25.30;;;;;;;3.17;100.00;102319.25;5247305;28;20450;-90
2022/12/02 11:27:02;;;;;;;58.58;26.75;;;;;;;3.17;100.00;102313.97;5263732;28;20021;-91
2022/12/02 11:30:19;;;;;;;63.20;26.88;;;;;;;3.29;100.00;102315.28;5263554;28;20025;-91
2022/12/02 11:32:50;;;;;;;56.05;26.30;;;;;;;3.24;100.00;102311.97;5238964;28;20041;-91
2022/12/02 11:36:00;;;;;;;57.28;24.83;;;;;;;3.37;100.00;102308.78;5266164;28;20025;-91
2022/12/02 11:39:03;;;;;;;61.25;26.13;;;;;;;3.36;100.00;102308.84;5266031;28;20378;-91
2022/12/02 11:41:46;;;;;;;61.53;25.55;;;;;;;3.37;100.00;102313.22;5246730;28;20036;-91
2022/12/02 11:44:28;;;;;;;62.63;26.55;;;;;;;3.34;100.00;102305.41;5264698;28;20032;-90
2022/12/02 11:47:03;;;;;;;57.88;24.92;;;;;;;3.27;100.00;102304.78;5262600;28;20026;-90